createdAt,value
2018-09-10T00:01:11.088Z,53.90
2018-09-10T00:03:16.018Z,54.09
2018-09-10T00:05:20.787Z,53.70
2018-09-10T00:07:25.512Z,53.80
2018-09-10T00:09:30.255Z,53.57
2018-09-10T00:11:35.009Z,53.59
2018-09-10T00:13:39.782Z,53.73
2018-09-10T00:15:45.192Z,53.08
2018-09-10T00:17:50.339Z,52.64
2018-09-10T00:19:55.273Z,52.86
2018-09-10T00:21:59.977Z,52.55
2018-09-10T00:24:04.652Z,52.37
2018-09-10T00:26:09.348Z,52.24
2018-09-10T00:28:14.098Z,52.55
2018-09-10T00:30:18.868Z,52.81
2018-09-10T00:32:23.652Z,52.60
2018-09-10T00:34:28.410Z,52.95
2018-09-10T00:36:33.183Z,52.64
2018-09-10T00:38:38.007Z,53.00
2018-09-10T00:40:42.776Z,52.96
2018-09-10T00:42:47.570Z,53.02
2018-09-10T00:44:52.317Z,53.26
2018-09-10T00:46:57.159Z,53.67
2018-09-10T00:49:02.097Z,53.54
2018-09-10T00:51:06.842Z,53.91
2018-09-10T00:53:11.588Z,53.58
2018-09-10T00:55:16.334Z,53.66
2018-09-10T00:57:21.101Z,53.84
2018-09-10T00:59:25.824Z,54.03
2018-09-10T01:01:30.469Z,53.73
2018-09-10T01:03:35.249Z,53.54
2018-09-10T01:05:39.998Z,53.83
2018-09-10T01:07:44.691Z,53.83
2018-09-10T01:09:49.540Z,53.90
2018-09-10T01:11:54.311Z,53.49
2018-09-10T01:13:59.011Z,53.46
2018-09-10T01:16:03.750Z,53.19
2018-09-10T01:18:08.441Z,53.03
2018-09-10T01:20:13.190Z,53.69
2018-09-10T01:22:17.966Z,53.87
2018-09-10T01:24:22.653Z,53.46
2018-09-10T01:26:27.353Z,53.29
2018-09-10T01:28:32.393Z,53.72
2018-09-10T01:30:37.219Z,53.74
2018-09-10T01:32:41.941Z,53.74
2018-09-10T01:34:51.782Z,54.15
2018-09-10T01:36:56.709Z,53.83
2018-09-10T01:39:01.407Z,54.14
2018-09-10T01:41:06.250Z,54.21
2018-09-10T01:43:10.982Z,53.74
2018-09-10T01:45:15.747Z,53.61
2018-09-10T01:47:20.666Z,53.12
2018-09-10T01:49:25.284Z,53.08
2018-09-10T01:51:30.027Z,53.17
2018-09-10T01:53:34.902Z,53.48
2018-09-10T01:55:39.538Z,53.71
2018-09-10T01:57:44.232Z,54.20
2018-09-10T01:59:48.927Z,54.35
2018-09-10T02:01:53.625Z,54.55
2018-09-10T02:03:58.295Z,54.60
2018-09-10T02:06:03.108Z,54.82
2018-09-10T02:08:07.752Z,55.33
2018-09-10T02:10:12.361Z,55.37
2018-09-10T02:12:22.192Z,55.00
2018-09-10T02:14:26.874Z,55.56
2018-09-10T02:16:31.502Z,55.50
2018-09-10T02:18:36.194Z,55.61
2018-09-10T02:20:40.846Z,55.83
2018-09-10T02:22:45.555Z,55.93
2018-09-10T02:24:50.252Z,55.99
2018-09-10T02:26:55.020Z,55.53
2018-09-10T02:28:59.871Z,56.00
2018-09-10T02:31:04.937Z,55.89
2018-09-10T02:33:09.666Z,56.28
2018-09-10T02:35:14.375Z,56.28
2018-09-10T02:37:19.109Z,56.27
2018-09-10T02:39:23.751Z,56.27
2018-09-10T02:41:28.483Z,56.81
2018-09-10T02:43:33.134Z,56.50
2018-09-10T02:45:37.727Z,56.54
2018-09-10T02:47:42.440Z,57.03
2018-09-10T02:49:47.148Z,56.85
2018-09-10T02:51:51.985Z,57.07
2018-09-10T02:53:56.624Z,57.19
2018-09-10T02:56:01.302Z,57.46
2018-09-10T02:58:06.219Z,57.08
2018-09-10T03:00:11.933Z,57.35
2018-09-10T03:02:16.665Z,57.63
2018-09-10T03:04:21.298Z,57.32
2018-09-10T03:06:26.063Z,56.94
2018-09-10T03:08:30.868Z,57.32
2018-09-10T03:10:35.588Z,57.17
2018-09-10T03:12:40.193Z,56.95
2018-09-10T03:14:44.855Z,57.25
2018-09-10T03:16:49.521Z,57.17
2018-09-10T03:18:54.228Z,56.83
2018-09-10T03:20:58.929Z,56.64
2018-09-10T03:23:03.586Z,56.94
2018-09-10T03:25:08.345Z,56.74
2018-09-10T03:27:13.047Z,56.78
2018-09-10T03:29:17.739Z,57.00
2018-09-10T03:31:22.426Z,56.73
2018-09-10T03:33:27.147Z,56.90
2018-09-10T03:35:31.835Z,56.54
2018-09-10T03:37:36.674Z,56.59
2018-09-10T03:39:41.384Z,57.01
2018-09-10T03:41:46.156Z,56.65
2018-09-10T03:43:50.798Z,56.96
2018-09-10T03:45:55.420Z,56.92
2018-09-10T03:48:00.114Z,56.25
2018-09-10T03:52:19.018Z,56.48
2018-09-10T03:54:23.726Z,55.68
2018-09-10T03:56:28.657Z,55.30
2018-09-10T03:58:33.378Z,54.33
2018-09-10T04:00:38.103Z,53.86
2018-09-10T04:02:42.742Z,53.42
2018-09-10T04:04:47.444Z,53.18
2018-09-10T04:06:52.899Z,52.64
2018-09-10T04:08:57.653Z,53.58
2018-09-10T04:11:02.431Z,53.15
2018-09-10T04:13:07.359Z,53.13
2018-09-10T04:15:13.387Z,53.95
2018-09-10T04:17:18.313Z,53.83
2018-09-10T04:19:23.047Z,53.67
2018-09-10T04:21:27.775Z,53.27
2018-09-10T04:23:34.401Z,53.89
2018-09-10T04:25:39.170Z,53.38
2018-09-10T04:27:43.814Z,53.61
2018-09-10T04:29:48.588Z,53.64
2018-09-10T04:31:53.338Z,54.35
2018-09-10T04:33:58.177Z,54.26
2018-09-10T04:36:02.975Z,54.06
2018-09-10T04:38:07.689Z,54.98
2018-09-10T04:40:12.449Z,54.78
2018-09-10T04:42:17.359Z,54.86
2018-09-10T04:44:22.191Z,55.05
2018-09-10T04:46:26.954Z,55.14
2018-09-10T04:48:31.660Z,54.28
2018-09-10T04:50:36.352Z,54.81
2018-09-10T04:52:41.110Z,54.97
2018-09-10T04:54:45.824Z,55.25
2018-09-10T04:59:03.822Z,56.02
2018-09-10T05:01:08.622Z,56.18
2018-09-10T05:03:13.399Z,56.46
2018-09-10T05:05:18.261Z,55.57
2018-09-10T05:07:22.993Z,55.65
2018-09-10T05:09:27.770Z,55.56
2018-09-10T05:11:32.653Z,55.73
2018-09-10T05:13:37.761Z,56.12
2018-09-10T05:15:44.136Z,56.00
2018-09-10T05:19:53.951Z,56.57
2018-09-10T05:21:58.698Z,56.10
2018-09-10T05:24:03.399Z,56.34
2018-09-10T05:26:08.251Z,56.33
2018-09-10T05:28:13.404Z,55.43
2018-09-10T05:30:18.165Z,56.12
2018-09-10T05:32:23.007Z,56.66
2018-09-10T05:34:27.936Z,56.50
2018-09-10T05:36:33.364Z,56.93
2018-09-10T05:38:38.171Z,56.38
2018-09-10T05:40:43.025Z,55.70
2018-09-10T05:42:48.619Z,55.92
2018-09-10T05:44:53.409Z,56.16
2018-09-10T05:46:58.211Z,56.39
2018-09-10T05:49:02.909Z,56.63
2018-09-10T05:51:07.686Z,56.11
2018-09-10T05:53:12.442Z,56.78
2018-09-10T05:55:17.079Z,56.65
2018-09-10T05:57:21.871Z,56.80
2018-09-10T05:59:26.521Z,56.55
2018-09-10T06:01:31.175Z,56.93
2018-09-10T06:03:36.052Z,57.05
2018-09-10T06:05:40.903Z,56.91
2018-09-10T06:07:45.681Z,56.54
2018-09-10T06:09:50.631Z,56.01
2018-09-10T06:11:55.480Z,56.52
2018-09-10T06:14:00.252Z,57.46
2018-09-10T06:16:05.247Z,57.03
2018-09-10T06:18:10.007Z,56.86
2018-09-10T06:20:14.772Z,57.24
2018-09-10T06:22:19.809Z,57.06
2018-09-10T06:24:24.681Z,57.39
2018-09-10T06:26:29.516Z,57.86
2018-09-10T06:28:34.345Z,58.40
2018-09-10T06:30:39.066Z,58.29
2018-09-10T06:32:43.735Z,57.79
2018-09-10T06:34:48.445Z,56.72
2018-09-10T06:36:53.146Z,57.24
2018-09-10T06:38:57.833Z,57.17
2018-09-10T06:41:02.618Z,57.39
2018-09-10T06:43:07.595Z,57.06
2018-09-10T06:45:12.466Z,57.42
2018-09-10T06:47:17.221Z,56.97
2018-09-10T06:49:21.945Z,57.08
2018-09-10T06:51:26.678Z,56.74
2018-09-10T06:53:35.041Z,55.82
2018-09-10T06:55:40.033Z,57.05
2018-09-10T06:57:44.805Z,56.87
2018-09-10T06:59:49.567Z,56.57
2018-09-10T07:01:54.465Z,55.85
2018-09-10T07:04:00.003Z,56.31
2018-09-10T07:06:04.759Z,56.16
2018-09-10T07:08:09.849Z,56.34
2018-09-10T07:10:14.756Z,55.65
2018-09-10T07:12:19.443Z,55.73
2018-09-10T07:14:24.984Z,55.97
2018-09-10T07:16:29.730Z,55.00
2018-09-10T07:18:36.224Z,54.31
2018-09-10T07:20:40.958Z,54.66
2018-09-10T07:22:45.689Z,55.27
2018-09-10T07:24:50.455Z,54.75
2018-09-10T07:26:55.110Z,54.79
2018-09-10T07:28:59.945Z,54.67
2018-09-10T07:31:05.012Z,55.61
2018-09-10T07:33:09.827Z,54.93
2018-09-10T07:35:14.651Z,55.70
2018-09-10T07:37:19.360Z,56.11
2018-09-10T07:39:24.289Z,55.33
2018-09-10T07:41:29.226Z,55.74
2018-09-10T07:43:34.086Z,55.60
2018-09-10T07:45:38.832Z,54.89
2018-09-10T07:47:43.741Z,55.58
2018-09-10T07:49:48.798Z,54.73
2018-09-10T07:51:54.036Z,54.76
2018-09-10T07:53:58.778Z,55.49
2018-09-10T07:56:03.630Z,55.41
2018-09-10T07:58:08.485Z,54.81
2018-09-10T08:00:13.202Z,55.15
2018-09-10T08:02:17.951Z,55.00
2018-09-10T08:04:22.781Z,56.04
2018-09-10T08:06:27.596Z,55.52
2018-09-10T08:08:33.446Z,56.22
2018-09-10T08:10:38.183Z,55.49
2018-09-10T08:12:42.887Z,56.47
2018-09-10T08:14:47.853Z,56.35
2018-09-10T08:16:52.614Z,56.00
2018-09-10T08:18:57.550Z,56.64
2018-09-10T08:21:02.282Z,56.72
2018-09-10T08:23:07.008Z,55.34
2018-09-10T08:25:11.943Z,54.83
2018-09-10T08:27:17.059Z,56.35
2018-09-10T08:29:22.114Z,55.28
2018-09-10T08:31:27.155Z,55.05
2018-09-10T08:33:32.015Z,56.09
2018-09-10T08:35:37.275Z,55.09
2018-09-10T08:37:42.033Z,55.71
2018-09-10T08:39:46.678Z,55.50
2018-09-10T08:41:51.518Z,55.27
2018-09-10T08:43:56.918Z,55.33
2018-09-10T08:46:02.601Z,54.83
2018-09-10T08:48:07.907Z,54.21
2018-09-10T08:50:12.639Z,54.40
2018-09-10T08:52:17.799Z,54.17
2018-09-10T08:54:22.691Z,54.21
2018-09-10T08:56:27.258Z,54.00
2018-09-10T08:58:31.943Z,53.35
2018-09-10T09:00:36.700Z,53.99
2018-09-10T09:02:41.579Z,53.79
2018-09-10T09:04:46.365Z,54.47
2018-09-10T09:06:51.277Z,53.70
2018-09-10T09:09:02.519Z,54.23
2018-09-10T09:11:07.443Z,53.96
2018-09-10T09:13:12.222Z,53.58
2018-09-10T09:15:16.966Z,52.88
2018-09-10T09:17:21.868Z,52.71
2018-09-10T09:19:26.666Z,53.45
2018-09-10T09:21:31.526Z,53.66
2018-09-10T09:23:36.394Z,53.07
2018-09-10T09:25:41.089Z,53.49
2018-09-10T09:27:45.796Z,53.76
2018-09-10T09:29:50.622Z,53.45
2018-09-10T09:31:55.329Z,53.05
2018-09-10T09:34:00.690Z,53.51
2018-09-10T09:36:10.445Z,53.53
2018-09-10T09:38:20.320Z,53.44
2018-09-10T09:40:30.076Z,52.77
2018-09-10T09:42:39.869Z,52.30
2018-09-10T09:44:49.802Z,52.21
2018-09-10T09:46:54.559Z,52.84
2018-09-10T09:48:59.321Z,52.15
2018-09-10T09:51:04.389Z,51.73
2018-09-10T09:53:09.136Z,51.22
2018-09-10T09:55:13.890Z,49.91
2018-09-10T09:57:18.565Z,49.62
2018-09-10T09:59:23.395Z,50.01
2018-09-10T10:01:33.347Z,49.26
2018-09-10T10:03:43.139Z,48.30
2018-09-10T10:05:48.017Z,48.45
2018-09-10T10:07:52.855Z,47.85
2018-09-10T10:09:57.606Z,47.09
2018-09-10T10:12:02.397Z,47.35
2018-09-10T10:14:08.013Z,47.74
2018-09-10T10:16:12.725Z,46.44
2018-09-10T10:18:17.391Z,47.11
2018-09-10T10:20:22.068Z,47.15
2018-09-10T10:22:26.844Z,46.38
2018-09-10T10:24:31.619Z,46.05
2018-09-10T10:26:36.377Z,45.49
2018-09-10T10:28:41.253Z,44.21
2018-09-10T10:30:46.186Z,44.95
2018-09-10T10:32:50.973Z,43.09
2018-09-10T10:34:55.776Z,43.88
2018-09-10T10:37:00.577Z,44.60
2018-09-10T10:39:06.891Z,44.89
2018-09-10T10:41:11.600Z,45.00
2018-09-10T10:43:16.441Z,44.75
2018-09-10T10:45:21.226Z,44.19
2018-09-10T10:47:26.056Z,43.76
2018-09-10T10:49:30.777Z,44.13
2018-09-10T10:51:35.767Z,42.81
2018-09-10T10:53:40.610Z,43.28
2018-09-10T10:55:45.443Z,43.73
2018-09-10T10:57:50.258Z,44.67
2018-09-10T10:59:55.093Z,43.03
2018-09-10T11:01:59.889Z,42.70
2018-09-10T11:04:04.697Z,43.87
2018-09-10T11:06:09.567Z,43.77
2018-09-10T11:08:14.311Z,44.32
2018-09-10T11:10:19.144Z,43.51
2018-09-10T11:12:24.027Z,44.50
2018-09-10T11:14:29.034Z,41.58
2018-09-10T11:16:33.774Z,43.06
2018-09-10T11:18:38.587Z,43.47
2018-09-10T11:20:43.691Z,43.90
2018-09-10T11:22:48.604Z,42.91
2018-09-10T11:24:53.445Z,41.78
2018-09-10T11:26:58.272Z,40.95
2018-09-10T11:29:03.034Z,41.50
2018-09-10T11:31:08.163Z,40.90
2018-09-10T11:33:12.985Z,41.09
2018-09-10T11:35:17.806Z,41.17
2018-09-10T11:37:22.655Z,41.44
2018-09-10T11:39:27.521Z,41.71
2018-09-10T11:41:32.320Z,41.42
2018-09-10T11:43:37.066Z,42.68
2018-09-10T11:45:41.978Z,42.58
2018-09-10T11:47:46.762Z,42.26
2018-09-10T11:49:51.500Z,40.63
2018-09-10T11:51:56.211Z,40.51
2018-09-10T11:54:00.984Z,40.96
2018-09-10T11:56:05.746Z,41.65
2018-09-10T11:58:10.477Z,41.57
2018-09-10T12:00:15.262Z,41.86
2018-09-10T12:02:19.977Z,41.68
2018-09-10T12:04:24.698Z,41.95
2018-09-10T12:06:29.524Z,42.00
2018-09-10T12:08:34.300Z,42.26
2018-09-10T12:10:39.120Z,41.67
2018-09-10T12:12:43.914Z,41.28
2018-09-10T12:14:55.159Z,40.77
2018-09-10T12:16:59.910Z,40.69
2018-09-10T12:19:05.156Z,41.01
2018-09-10T12:21:09.891Z,40.70
2018-09-10T12:23:14.670Z,40.88
2018-09-10T12:25:19.431Z,40.82
2018-09-10T12:27:24.360Z,40.95
2018-09-10T12:29:29.146Z,41.52
2018-09-10T12:31:33.955Z,41.40
2018-09-10T12:33:38.722Z,42.00
2018-09-10T12:35:43.401Z,41.71
2018-09-10T12:37:48.247Z,42.73
2018-09-10T12:39:53.034Z,41.44
2018-09-10T12:41:57.785Z,41.56
2018-09-10T12:44:02.652Z,41.86
2018-09-10T12:46:07.946Z,42.07
2018-09-10T12:48:12.709Z,42.05
2018-09-10T12:50:17.437Z,42.00
2018-09-10T12:52:22.228Z,42.10
2018-09-10T12:54:26.946Z,42.12
2018-09-10T12:56:31.882Z,41.99
2018-09-10T12:58:36.641Z,42.06
2018-09-10T13:00:41.398Z,42.00
2018-09-10T13:02:46.217Z,41.20
2018-09-10T13:04:50.951Z,41.30
2018-09-10T13:06:55.781Z,41.27
2018-09-10T13:09:00.656Z,40.73
2018-09-10T13:11:05.503Z,41.09
2018-09-10T13:13:10.346Z,41.54
2018-09-10T13:15:15.352Z,41.74
2018-09-10T13:17:20.134Z,41.48
2018-09-10T13:19:24.925Z,41.18
2018-09-10T13:21:29.789Z,40.70
2018-09-10T13:23:41.163Z,41.28
2018-09-10T13:25:46.010Z,41.31
2018-09-10T13:27:50.871Z,40.98
2018-09-10T13:29:55.634Z,40.84
2018-09-10T13:32:00.452Z,41.50
2018-09-10T13:34:05.303Z,41.25
2018-09-10T13:36:10.179Z,41.66
2018-09-10T13:38:14.933Z,41.58
2018-09-10T13:40:19.842Z,41.66
2018-09-10T13:44:22.243Z,41.16
2018-09-10T13:46:27.927Z,40.97
2018-09-10T13:48:32.846Z,40.86
2018-09-10T13:50:37.831Z,40.47
2018-09-10T13:52:43.035Z,41.27
2018-09-10T13:54:47.994Z,41.97
2018-09-10T13:56:52.856Z,41.04
2018-09-10T13:58:57.669Z,41.35
2018-09-10T14:01:05.635Z,40.88
2018-09-10T14:03:10.398Z,41.03
2018-09-10T14:05:15.261Z,41.48
2018-09-10T14:07:20.049Z,41.92
2018-09-10T14:09:25.204Z,41.60
2018-09-10T14:11:29.993Z,41.45
2018-09-10T14:13:34.748Z,41.71
2018-09-10T14:15:39.544Z,41.35
2018-09-10T14:17:44.355Z,42.01
2018-09-10T14:19:49.094Z,42.00
2018-09-10T14:21:53.844Z,41.26
2018-09-10T14:23:58.645Z,41.21
2018-09-10T14:26:04.050Z,41.66
2018-09-10T14:28:08.824Z,41.10
2018-09-10T14:30:13.603Z,40.92
2018-09-10T14:32:18.375Z,40.86
2018-09-10T14:34:23.231Z,41.37
2018-09-10T14:36:28.103Z,41.48
2018-09-10T14:38:32.916Z,41.45
2018-09-10T14:40:37.646Z,41.93
2018-09-10T14:42:42.583Z,41.76
2018-09-10T14:44:47.523Z,41.16
2018-09-10T14:46:52.499Z,40.51
2018-09-10T14:48:57.448Z,41.40
2018-09-10T14:51:02.277Z,40.94
2018-09-10T14:53:07.140Z,41.69
2018-09-10T14:55:11.889Z,40.74
2018-09-10T14:57:16.639Z,40.56
2018-09-10T14:59:21.592Z,41.19
2018-09-10T15:01:27.347Z,41.33
2018-09-10T15:03:32.095Z,41.57
2018-09-10T15:05:36.910Z,41.11
2018-09-10T15:07:42.059Z,41.09
2018-09-10T15:09:47.125Z,41.76
2018-09-10T15:11:51.871Z,41.01
2018-09-10T15:13:56.608Z,40.65
2018-09-10T15:16:01.491Z,41.18
2018-09-10T15:18:06.669Z,41.36
2018-09-10T15:20:11.754Z,41.37
2018-09-10T15:22:16.548Z,41.51
2018-09-10T15:24:21.392Z,40.72
2018-09-10T15:26:26.308Z,41.52
2018-09-10T15:28:31.255Z,41.21
2018-09-10T15:30:36.249Z,41.94
2018-09-10T15:32:40.950Z,41.56
2018-09-10T15:34:45.757Z,41.59
2018-09-10T15:36:50.439Z,41.75
2018-09-10T15:38:55.319Z,41.41
2018-09-10T15:41:00.154Z,41.76
2018-09-10T15:43:05.046Z,41.69
2018-09-10T15:45:10.264Z,42.06
2018-09-10T15:47:15.110Z,42.06
2018-09-10T15:49:19.920Z,41.76
2018-09-10T15:51:25.518Z,41.42
2018-09-10T15:53:30.461Z,41.68
2018-09-10T15:55:35.247Z,41.96
2018-09-10T15:57:40.041Z,42.54
2018-09-10T15:59:44.949Z,42.62
2018-09-10T16:01:49.779Z,43.06
2018-09-10T16:03:54.621Z,42.90
2018-09-10T16:05:59.811Z,42.96
2018-09-10T16:08:04.716Z,43.32
2018-09-10T16:10:09.561Z,43.17
2018-09-10T16:12:14.380Z,43.41
2018-09-10T16:14:19.208Z,42.99
2018-09-10T16:16:24.066Z,43.17
2018-09-10T16:18:28.937Z,43.25
2018-09-10T16:20:33.843Z,42.53
2018-09-10T16:22:38.787Z,42.91
2018-09-10T16:24:43.685Z,43.48
2018-09-10T16:26:48.417Z,43.57
2018-09-10T16:28:53.304Z,43.48
2018-09-10T16:30:59.108Z,43.32
2018-09-10T16:33:04.038Z,43.30
2018-09-10T16:35:09.104Z,43.74
2018-09-10T16:37:14.118Z,43.29
2018-09-10T16:39:19.066Z,43.55
2018-09-10T16:41:23.971Z,43.30
2018-09-10T16:43:28.652Z,43.76
2018-09-10T16:45:33.812Z,44.16
2018-09-10T16:47:38.884Z,44.05
2018-09-10T16:49:43.629Z,44.30
2018-09-10T16:51:48.481Z,44.06
2018-09-10T16:53:53.362Z,44.46
2018-09-10T16:55:58.378Z,44.38
2018-09-10T16:58:03.197Z,44.02
2018-09-10T17:00:08.133Z,43.64
2018-09-10T17:02:13.149Z,44.63
2018-09-10T17:04:18.904Z,44.63
2018-09-10T17:06:24.905Z,44.54
2018-09-10T17:08:29.927Z,44.67
2018-09-10T17:10:34.900Z,44.72
2018-09-10T17:14:43.282Z,44.85
2018-09-10T17:16:48.928Z,44.77
2018-09-10T17:18:53.703Z,44.89
2018-09-10T17:21:02.894Z,44.94
2018-09-10T17:23:08.340Z,44.51
2018-09-10T17:25:14.344Z,45.23
2018-09-10T17:27:19.225Z,45.11
2018-09-10T17:29:25.105Z,45.30
2018-09-10T17:31:30.053Z,45.26
2018-09-10T17:33:34.990Z,45.32
2018-09-10T17:35:40.189Z,45.86
2018-09-10T17:37:45.068Z,46.16
2018-09-10T17:39:50.426Z,45.69
2018-09-10T17:41:55.341Z,46.05
2018-09-10T17:44:00.343Z,46.38
2018-09-10T17:46:05.243Z,46.83
2018-09-10T17:48:14.565Z,47.05
2018-09-10T17:50:20.916Z,47.08
2018-09-10T17:52:25.906Z,47.64
2018-09-10T17:54:33.413Z,47.24
2018-09-10T17:56:38.385Z,46.82
2018-09-10T17:58:43.378Z,46.74
2018-09-10T18:00:49.761Z,46.79
2018-09-10T18:02:54.577Z,47.18
2018-09-10T18:04:59.870Z,47.19
2018-09-10T18:07:05.025Z,47.31
2018-09-10T18:09:11.610Z,47.30
2018-09-10T18:11:16.607Z,47.37
2018-09-10T18:13:21.600Z,47.26
2018-09-10T18:15:26.598Z,47.23
2018-09-10T18:17:31.987Z,46.94
2018-09-10T18:19:36.953Z,46.81
2018-09-10T18:21:42.174Z,46.79
2018-09-10T18:23:47.318Z,47.23
2018-09-10T18:25:53.572Z,46.92
2018-09-10T18:28:02.647Z,47.36
2018-09-10T18:30:11.053Z,47.16
2018-09-10T18:32:17.169Z,47.32
2018-09-10T18:34:23.760Z,47.96
2018-09-10T18:36:32.979Z,48.18
2018-09-10T18:38:40.747Z,48.63
2018-09-10T18:40:47.227Z,48.43
2018-09-10T18:42:55.430Z,48.92
2018-09-10T18:45:01.720Z,48.91
2018-09-10T18:47:09.993Z,49.36
2018-09-10T18:49:17.347Z,49.46
2018-09-10T18:51:24.309Z,49.12
2018-09-10T18:53:29.459Z,49.76
2018-09-10T18:55:34.645Z,49.88
2018-09-10T18:57:42.209Z,50.17
2018-09-10T18:59:49.035Z,49.84
2018-09-10T19:01:56.220Z,50.50
2018-09-10T19:04:03.108Z,50.68
2018-09-10T19:06:11.459Z,50.93
2018-09-10T19:08:19.778Z,51.10
2018-09-10T19:10:29.919Z,51.66
2018-09-10T19:12:39.842Z,51.54
2018-09-10T19:14:50.448Z,51.73
2018-09-10T19:16:59.859Z,52.27
2018-09-10T19:19:07.530Z,52.18
2018-09-10T19:21:15.385Z,52.13
2018-09-10T19:23:26.611Z,52.53
2018-09-10T19:25:42.294Z,51.97
2018-09-10T19:27:51.580Z,51.94
2018-09-10T19:30:01.528Z,52.04
2018-09-10T19:32:09.122Z,52.31
2018-09-10T19:34:15.062Z,52.44
2018-09-10T19:36:26.255Z,52.73
2018-09-10T19:38:35.692Z,52.26
2018-09-10T19:40:44.850Z,52.60
2018-09-10T19:42:54.736Z,52.45
2018-09-10T19:45:04.650Z,52.50
2018-09-10T19:47:13.569Z,52.94
2018-09-10T19:49:24.167Z,52.80
2018-09-10T19:51:34.204Z,52.84
2018-09-10T19:53:42.517Z,53.43
2018-09-10T19:55:51.136Z,53.71
2018-09-10T19:58:00.824Z,53.58
2018-09-10T20:00:14.046Z,53.80
2018-09-10T20:02:23.590Z,54.09
2018-09-10T20:04:32.247Z,54.23
2018-09-10T20:06:40.964Z,54.76
2018-09-10T20:08:50.840Z,54.56
2018-09-10T20:10:57.826Z,54.67
2018-09-10T20:13:06.351Z,54.69
2018-09-10T20:15:13.759Z,54.88
2018-09-10T20:17:21.714Z,54.91
2018-09-10T20:19:28.904Z,54.71
2018-09-10T20:21:36.497Z,54.71
2018-09-10T20:23:45.664Z,55.07
2018-09-10T20:25:51.475Z,54.69
2018-09-10T20:28:00.459Z,54.82
2018-09-10T20:30:08.163Z,54.83
2018-09-10T20:32:17.191Z,54.69
2018-09-10T20:34:23.376Z,54.32
2018-09-10T20:36:30.138Z,54.21
2018-09-10T20:38:35.937Z,53.71
2018-09-10T20:40:41.186Z,53.74
2018-09-10T20:42:46.188Z,53.56
2018-09-10T20:44:51.187Z,53.08
2018-09-10T20:46:56.008Z,53.44
2018-09-10T20:49:01.004Z,53.54
2018-09-10T20:51:05.982Z,53.59
2018-09-10T20:53:10.927Z,53.06
2018-09-10T20:55:15.913Z,53.08
2018-09-10T20:57:21.335Z,52.57
2018-09-10T20:59:30.611Z,52.76
2018-09-10T21:01:37.388Z,51.60
2018-09-10T21:03:43.210Z,51.69
2018-09-10T21:05:48.307Z,51.85
2018-09-10T21:07:53.242Z,51.75
2018-09-10T21:09:58.296Z,51.67
2018-09-10T21:12:03.335Z,51.58
2018-09-10T21:14:08.760Z,51.99
2018-09-10T21:16:14.772Z,51.68
2018-09-10T21:18:19.761Z,51.96
2018-09-10T21:20:24.534Z,51.95
2018-09-10T21:22:30.960Z,51.63
2018-09-10T21:24:36.817Z,51.34
2018-09-10T21:26:41.736Z,51.48
2018-09-10T21:28:46.559Z,51.29
2018-09-10T21:30:51.441Z,51.93
2018-09-10T21:32:56.446Z,51.67
2018-09-10T21:35:01.413Z,51.49
2018-09-10T21:37:06.637Z,51.84
2018-09-10T21:39:12.872Z,52.13
2018-09-10T21:41:17.647Z,52.21
2018-09-10T21:43:22.442Z,52.44
2018-09-10T21:45:28.985Z,52.52
2018-09-10T21:47:33.884Z,52.38
2018-09-10T21:49:38.761Z,52.77
2018-09-10T21:51:43.710Z,53.07
2018-09-10T21:53:49.333Z,53.18
2018-09-10T21:55:54.124Z,53.05
2018-09-10T21:57:59.577Z,53.75
2018-09-10T22:00:04.775Z,53.46
2018-09-10T22:02:10.992Z,53.95
2018-09-10T22:04:35.148Z,53.75
2018-09-10T22:06:40.061Z,53.71
2018-09-10T22:08:47.633Z,54.04
2018-09-10T22:10:52.707Z,53.63
2018-09-10T22:12:57.773Z,53.86
2018-09-10T22:15:02.600Z,54.70
2018-09-10T22:17:07.494Z,53.32
2018-09-10T22:19:12.577Z,54.13
2018-09-10T22:21:17.304Z,54.56
2018-09-10T22:23:22.131Z,54.76
2018-09-10T22:25:26.871Z,54.74
2018-09-10T22:27:31.657Z,54.47
2018-09-10T22:29:36.644Z,54.74
2018-09-10T22:31:41.790Z,54.78
2018-09-10T22:33:46.641Z,54.08
2018-09-10T22:35:51.480Z,53.92
2018-09-10T22:37:56.222Z,53.83
2018-09-10T22:40:01.057Z,54.57
2018-09-10T22:42:06.124Z,54.62
2018-09-10T22:44:31.846Z,54.81
2018-09-10T22:46:36.855Z,54.35
2018-09-10T22:48:41.688Z,55.45
2018-09-10T22:50:46.912Z,55.92
2018-09-10T22:52:51.772Z,56.35
2018-09-10T22:54:56.722Z,56.53
2018-09-10T22:57:01.593Z,56.18
2018-09-10T22:59:06.519Z,57.03
2018-09-10T23:01:11.331Z,57.39
2018-09-10T23:03:16.069Z,57.72
2018-09-10T23:05:21.030Z,58.13
2018-09-10T23:07:25.931Z,58.71
2018-09-10T23:09:30.809Z,59.18
2018-09-10T23:11:35.713Z,58.86
2018-09-10T23:13:40.453Z,59.45
2018-09-10T23:15:45.235Z,59.79
2018-09-10T23:17:50.121Z,59.68
2018-09-10T23:19:55.281Z,59.50
2018-09-10T23:22:00.006Z,59.92
2018-09-10T23:24:04.685Z,60.20
2018-09-10T23:26:09.467Z,60.33
2018-09-10T23:28:14.344Z,60.56
2018-09-10T23:30:19.153Z,61.07
2018-09-10T23:32:24.377Z,60.93
2018-09-10T23:34:29.102Z,61.41
2018-09-10T23:36:33.775Z,61.36
2018-09-10T23:38:38.589Z,61.91
2018-09-10T23:40:43.382Z,62.04
2018-09-10T23:42:48.110Z,62.39
2018-09-10T23:44:52.836Z,62.14
2018-09-10T23:46:57.663Z,62.34
2018-09-10T23:49:02.357Z,62.11
2018-09-10T23:51:07.076Z,62.30
2018-09-10T23:53:11.831Z,62.71
2018-09-10T23:55:16.585Z,62.54
2018-09-10T23:57:21.305Z,62.86
2018-09-10T23:59:26.259Z,62.41
